sensor_id;sensor_type;location;lat;lon;timestamp;P1;durP1;ratioP1;P2;durP2;ratioP2
18172;SDS011;9211;48.818;9.312;2022-12-29T00:00:19;2.47;;;1.40;;
18172;SDS011;9211;48.818;9.312;2022-12-29T00:02:47;2.92;;;1.40;;
18172;SDS011;9211;48.818;9.312;2022-12-29T00:05:13;2.92;;;1.60;;
18172;SDS011;9211;48.818;9.312;2022-12-29T00:07:42;2.42;;;1.40;;
18172;SDS011;9211;48.818;9.312;2022-12-29T00:10:09;4.00;;;1.40;;
18172;SDS011;9211;48.818;9.312;2022-12-29T00:12:36;3.15;;;1.40;;
18172;SDS011;9211;48.818;9.312;2022-12-29T00:15:20;5.60;;;1.30;;
18172;SDS011;9211;48.818;9.312;2022-12-29T00:18:05;2.50;;;1.30;;
18172;SDS011;9211;48.818;9.312;2022-12-29T00:20:33;1.98;;;1.20;;
18172;SDS011;9211;48.818;9.312;2022-12-29T00:23:19;3.03;;;1.58;;
18172;SDS011;9211;48.818;9.312;2022-12-29T00:26:12;3.70;;;1.50;;
18172;SDS011;9211;48.818;9.312;2022-12-29T00:28:58;3.05;;;1.42;;
18172;SDS011;9211;48.818;9.312;2022-12-29T00:31:42;3.90;;;1.40;;
18172;SDS011;9211;48.818;9.312;2022-12-29T00:34:27;2.03;;;1.37;;
18172;SDS011;9211;48.818;9.312;2022-12-29T00:37:11;3.13;;;1.48;;
18172;SDS011;9211;48.818;9.312;2022-12-29T00:39:39;4.50;;;1.48;;
18172;SDS011;9211;48.818;9.312;2022-12-29T00:42:24;2.80;;;1.40;;
18172;SDS011;9211;48.818;9.312;2022-12-29T00:45:08;2.05;;;1.30;;
18172;SDS011;9211;48.818;9.312;2022-12-29T00:47:35;3.27;;;1.50;;
18172;SDS011;9211;48.818;9.312;2022-12-29T00:50:02;3.90;;;1.33;;
18172;SDS011;9211;48.818;9.312;2022-12-29T00:52:29;2.78;;;1.20;;
18172;SDS011;9211;48.818;9.312;2022-12-29T00:54:57;3.33;;;1.48;;
18172;SDS011;9211;48.818;9.312;2022-12-29T00:57:24;3.22;;;1.40;;
18172;SDS011;9211;48.818;9.312;2022-12-29T00:59:51;3.72;;;1.58;;
18172;SDS011;9211;48.818;9.312;2022-12-29T01:02:18;4.28;;;1.35;;
18172;SDS011;9211;48.818;9.312;2022-12-29T01:04:45;4.57;;;1.50;;
18172;SDS011;9211;48.818;9.312;2022-12-29T01:07:15;3.88;;;1.30;;
18172;SDS011;9211;48.818;9.312;2022-12-29T01:09:43;2.80;;;1.50;;
18172;SDS011;9211;48.818;9.312;2022-12-29T01:12:25;3.63;;;1.60;;
18172;SDS011;9211;48.818;9.312;2022-12-29T01:15:09;3.22;;;1.60;;
18172;SDS011;9211;48.818;9.312;2022-12-29T01:17:38;2.90;;;1.45;;
18172;SDS011;9211;48.818;9.312;2022-12-29T01:20:05;4.72;;;1.50;;
18172;SDS011;9211;48.818;9.312;2022-12-29T01:22:34;3.20;;;1.30;;
18172;SDS011;9211;48.818;9.312;2022-12-29T01:25:01;3.10;;;1.30;;
18172;SDS011;9211;48.818;9.312;2022-12-29T01:27:29;4.00;;;1.30;;
18172;SDS011;9211;48.818;9.312;2022-12-29T01:29:56;4.00;;;1.23;;
18172;SDS011;9211;48.818;9.312;2022-12-29T01:32:23;3.67;;;1.35;;
18172;SDS011;9211;48.818;9.312;2022-12-29T01:34:50;4.70;;;1.40;;
18172;SDS011;9211;48.818;9.312;2022-12-29T01:37:17;3.67;;;1.50;;
18172;SDS011;9211;48.818;9.312;2022-12-29T01:39:44;2.45;;;1.20;;
18172;SDS011;9211;48.818;9.312;2022-12-29T01:42:12;2.60;;;1.30;;
18172;SDS011;9211;48.818;9.312;2022-12-29T01:44:54;3.05;;;1.40;;
18172;SDS011;9211;48.818;9.312;2022-12-29T01:47:26;2.38;;;1.40;;
18172;SDS011;9211;48.818;9.312;2022-12-29T01:49:58;2.38;;;1.30;;
18172;SDS011;9211;48.818;9.312;2022-12-29T01:52:29;2.75;;;1.20;;
18172;SDS011;9211;48.818;9.312;2022-12-29T01:55:01;3.63;;;1.40;;
18172;SDS011;9211;48.818;9.312;2022-12-29T01:57:31;2.00;;;1.25;;
18172;SDS011;9211;48.818;9.312;2022-12-29T02:00:04;2.40;;;1.30;;
18172;SDS011;9211;48.818;9.312;2022-12-29T02:02:39;3.03;;;1.30;;
18172;SDS011;9211;48.818;9.312;2022-12-29T02:05:11;2.20;;;1.15;;
18172;SDS011;9211;48.818;9.312;2022-12-29T02:07:44;2.72;;;1.30;;
18172;SDS011;9211;48.818;9.312;2022-12-29T02:10:11;2.60;;;1.40;;
18172;SDS011;9211;48.818;9.312;2022-12-29T02:12:40;2.38;;;1.30;;
18172;SDS011;9211;48.818;9.312;2022-12-29T02:15:08;3.13;;;1.30;;
18172;SDS011;9211;48.818;9.312;2022-12-29T02:17:41;4.38;;;1.30;;
18172;SDS011;9211;48.818;9.312;2022-12-29T02:23:45;4.03;;;1.40;;
18172;SDS011;9211;48.818;9.312;2022-12-29T02:29:40;2.58;;;1.20;;
18172;SDS011;9211;48.818;9.312;2022-12-29T02:32:26;2.73;;;1.17;;
18172;SDS011;9211;48.818;9.312;2022-12-29T02:35:05;2.40;;;1.15;;
18172;SDS011;9211;48.818;9.312;2022-12-29T02:37:40;2.78;;;1.13;;
18172;SDS011;9211;48.818;9.312;2022-12-29T02:40:14;3.65;;;1.10;;
18172;SDS011;9211;48.818;9.312;2022-12-29T02:42:50;3.43;;;1.10;;
18172;SDS011;9211;48.818;9.312;2022-12-29T02:45:24;4.47;;;1.20;;
18172;SDS011;9211;48.818;9.312;2022-12-29T02:48:00;3.53;;;1.10;;
18172;SDS011;9211;48.818;9.312;2022-12-29T02:50:35;2.55;;;1.10;;
18172;SDS011;9211;48.818;9.312;2022-12-29T02:53:04;3.20;;;1.20;;
18172;SDS011;9211;48.818;9.312;2022-12-29T02:55:34;2.35;;;1.00;;
18172;SDS011;9211;48.818;9.312;2022-12-29T02:58:12;2.40;;;1.20;;
18172;SDS011;9211;48.818;9.312;2022-12-29T03:03:20;2.83;;;1.23;;
18172;SDS011;9211;48.818;9.312;2022-12-29T03:06:03;1.98;;;1.10;;
18172;SDS011;9211;48.818;9.312;2022-12-29T03:08:40;2.05;;;1.00;;
18172;SDS011;9211;48.818;9.312;2022-12-29T03:11:14;3.15;;;1.00;;
18172;SDS011;9211;48.818;9.312;2022-12-29T03:13:56;2.72;;;1.00;;
18172;SDS011;9211;48.818;9.312;2022-12-29T03:16:47;3.10;;;1.00;;
18172;SDS011;9211;48.818;9.312;2022-12-29T03:19:19;4.00;;;0.90;;
18172;SDS011;9211;48.818;9.312;2022-12-29T03:21:51;2.97;;;1.07;;
18172;SDS011;9211;48.818;9.312;2022-12-29T03:24:43;2.20;;;1.20;;
18172;SDS011;9211;48.818;9.312;2022-12-29T03:27:13;2.13;;;0.93;;
18172;SDS011;9211;48.818;9.312;2022-12-29T03:29:45;1.90;;;1.00;;
18172;SDS011;9211;48.818;9.312;2022-12-29T03:32:20;4.70;;;1.17;;
18172;SDS011;9211;48.818;9.312;2022-12-29T03:34:51;3.77;;;1.10;;
18172;SDS011;9211;48.818;9.312;2022-12-29T03:37:20;2.75;;;1.00;;
18172;SDS011;9211;48.818;9.312;2022-12-29T03:39:50;2.35;;;0.80;;
18172;SDS011;9211;48.818;9.312;2022-12-29T03:42:17;3.00;;;1.00;;
18172;SDS011;9211;48.818;9.312;2022-12-29T03:44:47;2.85;;;0.80;;
18172;SDS011;9211;48.818;9.312;2022-12-29T03:47:15;2.70;;;1.00;;
18172;SDS011;9211;48.818;9.312;2022-12-29T03:49:44;3.90;;;0.90;;
18172;SDS011;9211;48.818;9.312;2022-12-29T03:52:12;3.80;;;1.00;;
18172;SDS011;9211;48.818;9.312;2022-12-29T03:54:42;4.10;;;1.02;;
18172;SDS011;9211;48.818;9.312;2022-12-29T03:57:11;2.30;;;0.90;;
18172;SDS011;9211;48.818;9.312;2022-12-29T04:00:00;2.83;;;1.00;;
18172;SDS011;9211;48.818;9.312;2022-12-29T04:02:29;4.22;;;1.00;;
18172;SDS011;9211;48.818;9.312;2022-12-29T04:04:56;5.47;;;1.05;;
18172;SDS011;9211;48.818;9.312;2022-12-29T04:07:24;2.87;;;1.20;;
18172;SDS011;9211;48.818;9.312;2022-12-29T04:09:53;1.48;;;0.93;;
18172;SDS011;9211;48.818;9.312;2022-12-29T04:12:23;2.22;;;0.80;;
18172;SDS011;9211;48.818;9.312;2022-12-29T04:14:50;4.63;;;1.00;;
18172;SDS011;9211;48.818;9.312;2022-12-29T04:17:17;2.30;;;0.90;;
18172;SDS011;9211;48.818;9.312;2022-12-29T04:19:45;2.45;;;1.10;;
18172;SDS011;9211;48.818;9.312;2022-12-29T04:22:13;4.25;;;0.95;;
18172;SDS011;9211;48.818;9.312;2022-12-29T04:24:42;2.88;;;0.93;;
18172;SDS011;9211;48.818;9.312;2022-12-29T04:27:11;5.18;;;1.10;;
18172;SDS011;9211;48.818;9.312;2022-12-29T04:30:14;3.53;;;1.10;;
18172;SDS011;9211;48.818;9.312;2022-12-29T04:32:48;2.20;;;1.00;;
18172;SDS011;9211;48.818;9.312;2022-12-29T04:35:15;3.78;;;1.08;;
18172;SDS011;9211;48.818;9.312;2022-12-29T04:37:43;5.55;;;1.13;;
18172;SDS011;9211;48.818;9.312;2022-12-29T04:40:12;3.50;;;1.10;;
18172;SDS011;9211;48.818;9.312;2022-12-29T04:42:39;4.13;;;1.20;;
18172;SDS011;9211;48.818;9.312;2022-12-29T04:45:07;2.58;;;1.00;;
18172;SDS011;9211;48.818;9.312;2022-12-29T04:47:55;4.05;;;1.30;;
18172;SDS011;9211;48.818;9.312;2022-12-29T04:50:36;3.10;;;1.20;;
18172;SDS011;9211;48.818;9.312;2022-12-29T04:53:13;6.00;;;1.20;;
18172;SDS011;9211;48.818;9.312;2022-12-29T04:55:43;3.40;;;1.15;;
18172;SDS011;9211;48.818;9.312;2022-12-29T04:58:11;3.13;;;1.20;;
18172;SDS011;9211;48.818;9.312;2022-12-29T05:00:38;2.40;;;1.10;;
18172;SDS011;9211;48.818;9.312;2022-12-29T05:03:05;4.10;;;1.30;;
18172;SDS011;9211;48.818;9.312;2022-12-29T05:05:32;2.72;;;1.05;;
18172;SDS011;9211;48.818;9.312;2022-12-29T05:08:00;2.13;;;1.15;;
18172;SDS011;9211;48.818;9.312;2022-12-29T05:10:27;3.75;;;1.20;;
18172;SDS011;9211;48.818;9.312;2022-12-29T05:12:59;1.95;;;1.00;;
18172;SDS011;9211;48.818;9.312;2022-12-29T05:15:27;2.22;;;1.15;;
18172;SDS011;9211;48.818;9.312;2022-12-29T05:17:54;2.88;;;1.27;;
18172;SDS011;9211;48.818;9.312;2022-12-29T05:20:21;2.92;;;1.10;;
18172;SDS011;9211;48.818;9.312;2022-12-29T05:22:48;3.53;;;1.10;;
18172;SDS011;9211;48.818;9.312;2022-12-29T05:25:15;4.40;;;1.20;;
18172;SDS011;9211;48.818;9.312;2022-12-29T05:28:00;2.33;;;1.10;;
18172;SDS011;9211;48.818;9.312;2022-12-29T05:30:47;2.55;;;1.05;;
18172;SDS011;9211;48.818;9.312;2022-12-29T05:33:16;3.58;;;1.20;;
18172;SDS011;9211;48.818;9.312;2022-12-29T05:35:43;2.05;;;1.10;;
18172;SDS011;9211;48.818;9.312;2022-12-29T05:38:11;2.25;;;0.98;;
18172;SDS011;9211;48.818;9.312;2022-12-29T05:40:38;2.47;;;1.13;;
18172;SDS011;9211;48.818;9.312;2022-12-29T05:43:18;2.40;;;1.20;;
18172;SDS011;9211;48.818;9.312;2022-12-29T05:46:09;2.80;;;1.10;;
18172;SDS011;9211;48.818;9.312;2022-12-29T05:48:45;2.40;;;1.10;;
18172;SDS011;9211;48.818;9.312;2022-12-29T05:51:33;2.67;;;1.20;;
18172;SDS011;9211;48.818;9.312;2022-12-29T05:54:01;2.78;;;1.10;;
18172;SDS011;9211;48.818;9.312;2022-12-29T05:56:28;1.95;;;1.10;;
18172;SDS011;9211;48.818;9.312;2022-12-29T05:58:58;2.47;;;1.20;;
18172;SDS011;9211;48.818;9.312;2022-12-29T06:01:26;2.30;;;1.17;;
18172;SDS011;9211;48.818;9.312;2022-12-29T06:03:53;3.47;;;1.20;;
18172;SDS011;9211;48.818;9.312;2022-12-29T06:06:20;2.80;;;0.98;;
18172;SDS011;9211;48.818;9.312;2022-12-29T06:08:47;2.45;;;1.02;;
18172;SDS011;9211;48.818;9.312;2022-12-29T06:11:15;3.53;;;1.20;;
18172;SDS011;9211;48.818;9.312;2022-12-29T06:13:48;3.17;;;1.20;;
18172;SDS011;9211;48.818;9.312;2022-12-29T06:16:16;1.88;;;1.10;;
18172;SDS011;9211;48.818;9.312;2022-12-29T06:18:45;2.53;;;1.07;;
18172;SDS011;9211;48.818;9.312;2022-12-29T06:21:12;2.67;;;1.00;;
18172;SDS011;9211;48.818;9.312;2022-12-29T06:23:39;3.00;;;1.10;;
18172;SDS011;9211;48.818;9.312;2022-12-29T06:26:06;1.63;;;1.00;;
18172;SDS011;9211;48.818;9.312;2022-12-29T06:28:33;2.80;;;1.30;;
18172;SDS011;9211;48.818;9.312;2022-12-29T06:30:59;1.90;;;0.90;;
18172;SDS011;9211;48.818;9.312;2022-12-29T06:33:29;2.60;;;1.10;;
18172;SDS011;9211;48.818;9.312;2022-12-29T06:35:57;3.45;;;1.33;;
18172;SDS011;9211;48.818;9.312;2022-12-29T06:38:23;3.47;;;1.00;;
18172;SDS011;9211;48.818;9.312;2022-12-29T06:40:50;3.05;;;1.15;;
18172;SDS011;9211;48.818;9.312;2022-12-29T06:43:36;2.92;;;1.00;;
18172;SDS011;9211;48.818;9.312;2022-12-29T06:46:23;2.78;;;1.20;;
18172;SDS011;9211;48.818;9.312;2022-12-29T06:48:52;2.53;;;1.17;;
18172;SDS011;9211;48.818;9.312;2022-12-29T06:51:19;1.95;;;1.10;;
18172;SDS011;9211;48.818;9.312;2022-12-29T06:53:46;4.95;;;1.23;;
18172;SDS011;9211;48.818;9.312;2022-12-29T06:56:13;3.97;;;1.20;;
18172;SDS011;9211;48.818;9.312;2022-12-29T06:58:40;2.45;;;1.17;;
18172;SDS011;9211;48.818;9.312;2022-12-29T07:01:06;2.40;;;1.15;;
18172;SDS011;9211;48.818;9.312;2022-12-29T07:03:33;2.78;;;1.00;;
18172;SDS011;9211;48.818;9.312;2022-12-29T07:06:02;2.72;;;1.10;;
18172;SDS011;9211;48.818;9.312;2022-12-29T07:08:31;2.85;;;1.00;;
18172;SDS011;9211;48.818;9.312;2022-12-29T07:10:57;4.25;;;1.10;;
18172;SDS011;9211;48.818;9.312;2022-12-29T07:13:24;4.47;;;1.20;;
18172;SDS011;9211;48.818;9.312;2022-12-29T07:15:51;2.80;;;1.20;;
18172;SDS011;9211;48.818;9.312;2022-12-29T07:18:18;2.58;;;1.15;;
18172;SDS011;9211;48.818;9.312;2022-12-29T07:20:45;2.40;;;1.00;;
18172;SDS011;9211;48.818;9.312;2022-12-29T07:23:14;4.93;;;1.10;;
18172;SDS011;9211;48.818;9.312;2022-12-29T07:25:41;2.30;;;1.10;;
18172;SDS011;9211;48.818;9.312;2022-12-29T07:28:08;2.72;;;1.00;;
18172;SDS011;9211;48.818;9.312;2022-12-29T07:30:36;2.97;;;1.02;;
18172;SDS011;9211;48.818;9.312;2022-12-29T07:33:03;3.63;;;1.15;;
18172;SDS011;9211;48.818;9.312;2022-12-29T07:35:30;2.75;;;1.10;;
18172;SDS011;9211;48.818;9.312;2022-12-29T07:37:57;3.30;;;1.00;;
18172;SDS011;9211;48.818;9.312;2022-12-29T07:40:25;2.30;;;1.00;;
18172;SDS011;9211;48.818;9.312;2022-12-29T07:42:52;3.67;;;1.27;;
18172;SDS011;9211;48.818;9.312;2022-12-29T07:45:28;3.75;;;1.10;;
18172;SDS011;9211;48.818;9.312;2022-12-29T07:48:07;2.63;;;1.17;;
18172;SDS011;9211;48.818;9.312;2022-12-29T07:50:34;2.90;;;1.30;;
18172;SDS011;9211;48.818;9.312;2022-12-29T07:53:02;2.70;;;1.13;;
18172;SDS011;9211;48.818;9.312;2022-12-29T07:55:31;3.30;;;1.10;;
18172;SDS011;9211;48.818;9.312;2022-12-29T07:57:57;3.35;;;1.20;;
18172;SDS011;9211;48.818;9.312;2022-12-29T08:00:24;3.20;;;1.10;;
18172;SDS011;9211;48.818;9.312;2022-12-29T08:02:52;2.30;;;1.10;;
18172;SDS011;9211;48.818;9.312;2022-12-29T08:05:19;2.20;;;1.00;;
18172;SDS011;9211;48.818;9.312;2022-12-29T08:07:46;2.73;;;1.10;;
18172;SDS011;9211;48.818;9.312;2022-12-29T08:10:16;2.25;;;1.10;;
18172;SDS011;9211;48.818;9.312;2022-12-29T08:12:44;3.03;;;1.00;;
18172;SDS011;9211;48.818;9.312;2022-12-29T08:15:11;2.72;;;1.13;;
18172;SDS011;9211;48.818;9.312;2022-12-29T08:17:39;3.63;;;1.37;;
18172;SDS011;9211;48.818;9.312;2022-12-29T08:20:06;2.47;;;1.10;;
18172;SDS011;9211;48.818;9.312;2022-12-29T08:22:34;3.70;;;1.23;;
18172;SDS011;9211;48.818;9.312;2022-12-29T08:25:01;2.80;;;1.10;;
18172;SDS011;9211;48.818;9.312;2022-12-29T08:27:29;3.90;;;1.10;;
18172;SDS011;9211;48.818;9.312;2022-12-29T08:29:57;1.40;;;0.90;;
18172;SDS011;9211;48.818;9.312;2022-12-29T08:32:25;2.70;;;1.10;;
18172;SDS011;9211;48.818;9.312;2022-12-29T08:34:53;2.00;;;1.00;;
18172;SDS011;9211;48.818;9.312;2022-12-29T08:37:20;2.37;;;1.30;;
18172;SDS011;9211;48.818;9.312;2022-12-29T08:39:47;3.40;;;1.10;;
18172;SDS011;9211;48.818;9.312;2022-12-29T08:42:15;3.70;;;1.00;;
18172;SDS011;9211;48.818;9.312;2022-12-29T08:44:42;1.80;;;1.00;;
18172;SDS011;9211;48.818;9.312;2022-12-29T08:47:10;1.90;;;0.90;;
18172;SDS011;9211;48.818;9.312;2022-12-29T08:49:37;3.78;;;1.10;;
18172;SDS011;9211;48.818;9.312;2022-12-29T08:52:04;2.95;;;1.10;;
18172;SDS011;9211;48.818;9.312;2022-12-29T08:54:31;3.03;;;0.90;;
18172;SDS011;9211;48.818;9.312;2022-12-29T08:56:59;3.10;;;1.05;;
18172;SDS011;9211;48.818;9.312;2022-12-29T08:59:33;2.97;;;1.00;;
18172;SDS011;9211;48.818;9.312;2022-12-29T09:02:01;2.03;;;0.90;;
18172;SDS011;9211;48.818;9.312;2022-12-29T09:04:29;4.30;;;0.95;;
18172;SDS011;9211;48.818;9.312;2022-12-29T09:06:56;2.08;;;0.90;;
18172;SDS011;9211;48.818;9.312;2022-12-29T09:09:23;2.78;;;1.00;;
18172;SDS011;9211;48.818;9.312;2022-12-29T09:11:50;2.22;;;1.02;;
18172;SDS011;9211;48.818;9.312;2022-12-29T09:14:17;4.50;;;1.08;;
18172;SDS011;9211;48.818;9.312;2022-12-29T09:16:44;4.20;;;1.02;;
18172;SDS011;9211;48.818;9.312;2022-12-29T09:19:30;2.33;;;1.03;;
18172;SDS011;9211;48.818;9.312;2022-12-29T09:21:57;2.38;;;1.00;;
18172;SDS011;9211;48.818;9.312;2022-12-29T09:24:24;1.90;;;1.10;;
18172;SDS011;9211;48.818;9.312;2022-12-29T09:26:51;2.60;;;1.17;;
18172;SDS011;9211;48.818;9.312;2022-12-29T09:29:18;2.72;;;1.20;;
18172;SDS011;9211;48.818;9.312;2022-12-29T09:31:45;2.75;;;1.00;;
18172;SDS011;9211;48.818;9.312;2022-12-29T09:34:12;2.80;;;1.30;;
18172;SDS011;9211;48.818;9.312;2022-12-29T09:36:40;3.85;;;1.33;;
18172;SDS011;9211;48.818;9.312;2022-12-29T09:39:07;3.60;;;1.00;;
18172;SDS011;9211;48.818;9.312;2022-12-29T09:41:36;2.85;;;1.02;;
18172;SDS011;9211;48.818;9.312;2022-12-29T09:44:07;2.42;;;1.00;;
18172;SDS011;9211;48.818;9.312;2022-12-29T09:46:41;2.33;;;1.20;;
18172;SDS011;9211;48.818;9.312;2022-12-29T09:49:16;3.50;;;1.10;;
18172;SDS011;9211;48.818;9.312;2022-12-29T09:51:52;5.10;;;1.13;;
18172;SDS011;9211;48.818;9.312;2022-12-29T09:54:24;3.17;;;1.10;;
18172;SDS011;9211;48.818;9.312;2022-12-29T09:57:14;3.83;;;1.02;;
18172;SDS011;9211;48.818;9.312;2022-12-29T09:59:44;2.47;;;1.30;;
18172;SDS011;9211;48.818;9.312;2022-12-29T10:02:16;3.75;;;1.20;;
18172;SDS011;9211;48.818;9.312;2022-12-29T10:04:53;2.27;;;1.20;;
18172;SDS011;9211;48.818;9.312;2022-12-29T10:07:25;2.53;;;1.10;;
18172;SDS011;9211;48.818;9.312;2022-12-29T10:10:01;2.85;;;1.30;;
18172;SDS011;9211;48.818;9.312;2022-12-29T10:12:39;2.95;;;1.20;;
18172;SDS011;9211;48.818;9.312;2022-12-29T10:15:22;2.20;;;1.17;;
18172;SDS011;9211;48.818;9.312;2022-12-29T10:18:04;2.77;;;1.00;;
18172;SDS011;9211;48.818;9.312;2022-12-29T10:20:44;2.95;;;1.20;;
18172;SDS011;9211;48.818;9.312;2022-12-29T10:23:27;2.50;;;1.10;;
18172;SDS011;9211;48.818;9.312;2022-12-29T10:25:56;2.80;;;1.40;;
18172;SDS011;9211;48.818;9.312;2022-12-29T10:28:24;4.18;;;1.20;;
18172;SDS011;9211;48.818;9.312;2022-12-29T10:31:01;3.50;;;1.25;;
18172;SDS011;9211;48.818;9.312;2022-12-29T10:33:32;3.17;;;1.30;;
18172;SDS011;9211;48.818;9.312;2022-12-29T10:36:04;2.63;;;1.15;;
18172;SDS011;9211;48.818;9.312;2022-12-29T10:38:42;3.05;;;1.00;;
18172;SDS011;9211;48.818;9.312;2022-12-29T10:41:15;4.50;;;1.48;;
18172;SDS011;9211;48.818;9.312;2022-12-29T10:43:47;2.90;;;1.27;;
18172;SDS011;9211;48.818;9.312;2022-12-29T10:46:18;3.05;;;1.13;;
18172;SDS011;9211;48.818;9.312;2022-12-29T10:48:47;3.10;;;1.00;;
18172;SDS011;9211;48.818;9.312;2022-12-29T10:51:16;2.95;;;1.20;;
18172;SDS011;9211;48.818;9.312;2022-12-29T10:53:48;2.95;;;1.20;;
18172;SDS011;9211;48.818;9.312;2022-12-29T10:56:21;2.25;;;1.30;;
18172;SDS011;9211;48.818;9.312;2022-12-29T10:58:56;2.22;;;1.30;;
18172;SDS011;9211;48.818;9.312;2022-12-29T11:01:29;4.35;;;1.30;;
18172;SDS011;9211;48.818;9.312;2022-12-29T11:04:03;3.63;;;1.50;;
18172;SDS011;9211;48.818;9.312;2022-12-29T11:06:34;4.15;;;1.30;;
18172;SDS011;9211;48.818;9.312;2022-12-29T11:09:08;3.40;;;1.30;;
18172;SDS011;9211;48.818;9.312;2022-12-29T11:11:40;3.72;;;1.30;;
18172;SDS011;9211;48.818;9.312;2022-12-29T11:14:10;3.05;;;1.30;;
18172;SDS011;9211;48.818;9.312;2022-12-29T11:16:39;2.92;;;1.50;;
18172;SDS011;9211;48.818;9.312;2022-12-29T11:19:16;4.43;;;1.30;;
18172;SDS011;9211;48.818;9.312;2022-12-29T11:21:47;2.75;;;1.30;;
18172;SDS011;9211;48.818;9.312;2022-12-29T11:24:19;3.25;;;1.40;;
18172;SDS011;9211;48.818;9.312;2022-12-29T11:26:49;3.92;;;1.20;;
18172;SDS011;9211;48.818;9.312;2022-12-29T11:29:21;3.22;;;1.33;;
18172;SDS011;9211;48.818;9.312;2022-12-29T11:31:51;3.55;;;1.20;;
18172;SDS011;9211;48.818;9.312;2022-12-29T11:34:21;3.80;;;1.35;;
18172;SDS011;9211;48.818;9.312;2022-12-29T11:36:50;3.35;;;1.42;;
18172;SDS011;9211;48.818;9.312;2022-12-29T11:39:25;4.38;;;1.40;;
18172;SDS011;9211;48.818;9.312;2022-12-29T11:41:58;2.92;;;1.10;;
18172;SDS011;9211;48.818;9.312;2022-12-29T11:44:27;5.53;;;1.40;;
18172;SDS011;9211;48.818;9.312;2022-12-29T11:47:01;4.22;;;1.38;;
18172;SDS011;9211;48.818;9.312;2022-12-29T11:49:28;3.60;;;1.27;;
18172;SDS011;9211;48.818;9.312;2022-12-29T11:51:55;2.92;;;1.20;;
18172;SDS011;9211;48.818;9.312;2022-12-29T11:54:23;2.83;;;1.25;;
18172;SDS011;9211;48.818;9.312;2022-12-29T11:56:56;4.65;;;1.25;;
18172;SDS011;9211;48.818;9.312;2022-12-29T11:59:36;3.50;;;1.13;;
18172;SDS011;9211;48.818;9.312;2022-12-29T12:05:16;3.95;;;1.25;;
18172;SDS011;9211;48.818;9.312;2022-12-29T12:07:50;3.13;;;1.13;;
18172;SDS011;9211;48.818;9.312;2022-12-29T12:10:22;5.25;;;1.35;;
18172;SDS011;9211;48.818;9.312;2022-12-29T12:12:56;3.22;;;1.30;;
18172;SDS011;9211;48.818;9.312;2022-12-29T12:15:30;3.42;;;1.30;;
18172;SDS011;9211;48.818;9.312;2022-12-29T12:18:04;3.28;;;1.50;;
18172;SDS011;9211;48.818;9.312;2022-12-29T12:20:38;3.05;;;1.42;;
18172;SDS011;9211;48.818;9.312;2022-12-29T12:23:14;2.70;;;1.20;;
18172;SDS011;9211;48.818;9.312;2022-12-29T12:25:53;3.33;;;1.50;;
18172;SDS011;9211;48.818;9.312;2022-12-29T12:28:25;3.90;;;1.35;;
18172;SDS011;9211;48.818;9.312;2022-12-29T12:30:59;3.08;;;1.60;;
18172;SDS011;9211;48.818;9.312;2022-12-29T12:33:31;3.95;;;1.40;;
18172;SDS011;9211;48.818;9.312;2022-12-29T12:36:09;4.13;;;1.30;;
18172;SDS011;9211;48.818;9.312;2022-12-29T12:38:48;2.72;;;1.42;;
18172;SDS011;9211;48.818;9.312;2022-12-29T12:41:26;3.72;;;1.60;;
18172;SDS011;9211;48.818;9.312;2022-12-29T12:44:01;3.15;;;1.50;;
18172;SDS011;9211;48.818;9.312;2022-12-29T12:50:03;3.45;;;1.02;;
18172;SDS011;9211;48.818;9.312;2022-12-29T12:52:46;2.72;;;1.10;;
18172;SDS011;9211;48.818;9.312;2022-12-29T12:55:30;3.22;;;1.30;;
18172;SDS011;9211;48.818;9.312;2022-12-29T12:58:11;2.30;;;1.25;;
18172;SDS011;9211;48.818;9.312;2022-12-29T13:00:48;4.07;;;1.08;;
18172;SDS011;9211;48.818;9.312;2022-12-29T13:03:27;3.13;;;1.33;;
18172;SDS011;9211;48.818;9.312;2022-12-29T13:06:13;4.07;;;1.20;;
18172;SDS011;9211;48.818;9.312;2022-12-29T13:08:55;2.75;;;1.30;;
18172;SDS011;9211;48.818;9.312;2022-12-29T13:11:37;3.22;;;1.40;;
18172;SDS011;9211;48.818;9.312;2022-12-29T13:14:22;2.88;;;1.27;;
18172;SDS011;9211;48.818;9.312;2022-12-29T13:17:04;4.38;;;1.20;;
18172;SDS011;9211;48.818;9.312;2022-12-29T13:19:40;4.25;;;1.33;;
18172;SDS011;9211;48.818;9.312;2022-12-29T13:22:12;2.20;;;1.10;;
18172;SDS011;9211;48.818;9.312;2022-12-29T13:24:47;3.15;;;1.27;;
18172;SDS011;9211;48.818;9.312;2022-12-29T13:27:23;3.57;;;1.40;;
18172;SDS011;9211;48.818;9.312;2022-12-29T13:30:04;3.25;;;1.20;;
18172;SDS011;9211;48.818;9.312;2022-12-29T13:32:39;3.25;;;1.25;;
18172;SDS011;9211;48.818;9.312;2022-12-29T13:35:18;3.00;;;1.20;;
18172;SDS011;9211;48.818;9.312;2022-12-29T13:38:07;2.72;;;1.40;;
18172;SDS011;9211;48.818;9.312;2022-12-29T13:40:38;3.33;;;1.30;;
18172;SDS011;9211;48.818;9.312;2022-12-29T13:43:09;2.83;;;1.40;;
18172;SDS011;9211;48.818;9.312;2022-12-29T13:45:39;1.67;;;1.15;;
18172;SDS011;9211;48.818;9.312;2022-12-29T13:48:09;3.90;;;1.38;;
18172;SDS011;9211;48.818;9.312;2022-12-29T13:50:44;3.88;;;1.35;;
18172;SDS011;9211;48.818;9.312;2022-12-29T13:53:18;1.92;;;1.15;;
18172;SDS011;9211;48.818;9.312;2022-12-29T13:55:51;2.78;;;1.10;;
18172;SDS011;9211;48.818;9.312;2022-12-29T13:58:25;3.60;;;1.20;;
18172;SDS011;9211;48.818;9.312;2022-12-29T14:01:00;2.30;;;1.00;;
18172;SDS011;9211;48.818;9.312;2022-12-29T14:03:44;2.95;;;1.20;;
18172;SDS011;9211;48.818;9.312;2022-12-29T14:06:17;3.75;;;1.25;;
18172;SDS011;9211;48.818;9.312;2022-12-29T14:08:49;3.60;;;1.30;;
18172;SDS011;9211;48.818;9.312;2022-12-29T14:11:22;3.42;;;1.30;;
18172;SDS011;9211;48.818;9.312;2022-12-29T14:13:55;3.53;;;1.30;;
18172;SDS011;9211;48.818;9.312;2022-12-29T14:16:28;3.80;;;1.50;;
18172;SDS011;9211;48.818;9.312;2022-12-29T14:18:57;4.32;;;1.40;;
18172;SDS011;9211;48.818;9.312;2022-12-29T14:21:32;3.67;;;1.35;;
18172;SDS011;9211;48.818;9.312;2022-12-29T14:33:16;2.92;;;1.50;;
18172;SDS011;9211;48.818;9.312;2022-12-29T14:35:45;3.15;;;1.30;;
18172;SDS011;9211;48.818;9.312;2022-12-29T14:38:15;3.73;;;1.40;;
18172;SDS011;9211;48.818;9.312;2022-12-29T14:40:44;2.75;;;1.20;;
18172;SDS011;9211;48.818;9.312;2022-12-29T14:43:12;3.87;;;1.50;;
18172;SDS011;9211;48.818;9.312;2022-12-29T14:45:45;3.03;;;1.40;;
18172;SDS011;9211;48.818;9.312;2022-12-29T14:48:32;2.63;;;1.30;;
18172;SDS011;9211;48.818;9.312;2022-12-29T14:51:16;3.73;;;1.40;;
18172;SDS011;9211;48.818;9.312;2022-12-29T14:53:52;2.75;;;1.33;;
18172;SDS011;9211;48.818;9.312;2022-12-29T14:56:20;4.78;;;1.40;;
18172;SDS011;9211;48.818;9.312;2022-12-29T14:58:52;3.00;;;1.37;;
18172;SDS011;9211;48.818;9.312;2022-12-29T15:01:23;3.65;;;1.50;;
18172;SDS011;9211;48.818;9.312;2022-12-29T15:04:05;3.25;;;1.67;;
18172;SDS011;9211;48.818;9.312;2022-12-29T15:06:40;4.03;;;1.50;;
18172;SDS011;9211;48.818;9.312;2022-12-29T15:09:12;5.33;;;1.70;;
18172;SDS011;9211;48.818;9.312;2022-12-29T15:11:51;4.88;;;1.40;;
18172;SDS011;9211;48.818;9.312;2022-12-29T15:14:30;3.40;;;1.40;;
18172;SDS011;9211;48.818;9.312;2022-12-29T15:16:59;4.22;;;1.48;;
18172;SDS011;9211;48.818;9.312;2022-12-29T15:19:28;2.33;;;1.42;;
18172;SDS011;9211;48.818;9.312;2022-12-29T15:21:56;2.72;;;1.30;;
18172;SDS011;9211;48.818;9.312;2022-12-29T15:24:23;3.55;;;1.50;;
18172;SDS011;9211;48.818;9.312;2022-12-29T15:26:51;3.38;;;1.55;;
18172;SDS011;9211;48.818;9.312;2022-12-29T15:29:32;3.73;;;1.33;;
18172;SDS011;9211;48.818;9.312;2022-12-29T15:32:10;3.67;;;1.40;;
18172;SDS011;9211;48.818;9.312;2022-12-29T15:34:49;4.70;;;1.35;;
18172;SDS011;9211;48.818;9.312;2022-12-29T15:37:21;2.55;;;1.20;;
18172;SDS011;9211;48.818;9.312;2022-12-29T15:39:50;3.08;;;1.40;;
18172;SDS011;9211;48.818;9.312;2022-12-29T15:42:24;2.72;;;1.42;;
18172;SDS011;9211;48.818;9.312;2022-12-29T15:45:12;3.60;;;1.30;;
18172;SDS011;9211;48.818;9.312;2022-12-29T15:47:41;4.22;;;1.30;;
18172;SDS011;9211;48.818;9.312;2022-12-29T15:50:15;2.87;;;1.47;;
18172;SDS011;9211;48.818;9.312;2022-12-29T15:52:49;3.53;;;1.50;;
18172;SDS011;9211;48.818;9.312;2022-12-29T15:55:18;3.05;;;1.63;;